Time;durP1;ratioP1;P1;durP2;ratioP2;P2;SDS_P1;SDS_P2;PMS_P1;PMS_P2;Temp;Humidity;BMP_temperature;BMP_pressure;BME280_temperature;BME280_humidity;BME280_pressure;Samples;Min_cycle;Max_cycle;Signal;HPM_P1;HPM_P2
2021/07/13 00:01:35;;;;;;;9.78;6.35;;;;;;;22.75;69.32;99012.95;1870689;76;22149;-61
2021/07/13 00:04:09;;;;;;;10.72;6.17;;;;;;;22.72;69.20;99017.87;1873928;76;27941;-62
2021/07/13 00:07:04;;;;;;;7.85;5.72;;;;;;;22.73;68.83;99022.20;1870756;76;22141;-60
2021/07/13 00:09:39;;;;;;;11.08;5.55;;;;;;;22.66;68.91;99010.66;1870649;76;22215;-60
2021/07/13 00:12:14;;;;;;;10.45;5.83;;;;;;;22.59;69.22;99011.80;1870726;76;22165;-62
2021/07/13 00:14:50;;;;;;;11.08;6.70;;;;;;;22.52;69.46;99015.13;1854725;76;27903;-62
2021/07/13 00:17:44;;;;;;;8.88;5.75;;;;;;;22.49;69.71;99009.53;1870704;76;22109;-63
2021/07/13 00:20:20;;;;;;;11.43;5.85;;;;;;;22.44;69.77;99011.91;1873944;76;38636;-62
2021/07/13 00:22:56;;;;;;;11.10;5.95;;;;;;;22.47;69.83;99011.35;1870613;76;22575;-61
2021/07/13 00:25:33;;;;;;;10.55;6.58;;;;;;;22.45;69.53;99018.44;1873940;76;28335;-61
2021/07/13 00:28:08;;;;;;;12.63;6.33;;;;;;;22.45;69.60;99021.06;1870711;76;22145;-60
2021/07/13 00:30:43;;;;;;;11.43;6.42;;;;;;;22.40;69.80;99018.20;1854737;76;28342;-60
2021/07/13 00:33:18;;;;;;;11.00;6.42;;;;;;;22.38;70.16;99018.71;1870652;76;22133;-63
2021/07/13 00:35:53;;;;;;;9.38;5.70;;;;;;;22.36;70.23;99020.53;1889971;76;22148;-61
2021/07/13 00:38:28;;;;;;;10.70;5.87;;;;;;;22.32;70.20;99024.59;1870609;76;22160;-62
2021/07/13 00:41:03;;;;;;;12.63;6.33;;;;;;;22.30;70.63;99029.05;1870675;76;22213;-59
2021/07/13 00:43:38;;;;;;;13.65;7.33;;;;;;;22.33;70.32;99027.61;1874038;76;28013;-61
2021/07/13 00:46:14;;;;;;;11.53;6.72;;;;;;;22.35;70.33;99024.09;1873924;76;28015;-60
2021/07/13 00:49:10;;;;;;;13.80;6.45;;;;;;;22.39;70.40;99034.88;1870453;76;22150;-63
2021/07/13 00:51:46;;;;;;;11.85;6.85;;;;;;;22.39;70.47;99035.77;1890069;76;22608;-63
2021/07/13 00:54:21;;;;;;;11.75;6.42;;;;;;;22.40;70.51;99036.61;1870744;76;22536;-62
2021/07/13 00:56:57;;;;;;;14.30;7.85;;;;;;;22.31;70.71;99030.78;1854797;76;27905;-64
2021/07/13 00:59:32;;;;;;;9.23;6.35;;;;;;;22.27;71.05;99023.90;1870814;76;22179;-62
2021/07/13 01:02:11;;;;;;;12.82;6.90;;;;;;;22.18;71.43;99020.23;1870537;76;20101;-61
2021/07/13 01:04:50;;;;;;;15.65;6.80;;;;;;;22.11;71.76;99019.62;1870722;76;22236;-62
2021/07/13 01:07:56;;;;;;;13.20;6.53;;;;;;;22.06;72.02;99018.07;1870740;76;22177;-63
2021/07/13 01:11:02;;;;;;;10.05;6.47;;;;;;;22.00;72.44;99023.52;1889982;76;22139;-62
2021/07/13 01:14:14;;;;;;;11.25;6.20;;;;;;;21.91;72.75;99023.39;1870708;76;22141;-62
2021/07/13 01:17:11;;;;;;;9.98;6.00;;;;;;;21.92;73.12;99026.88;1870715;76;22117;-63
2021/07/13 01:20:12;;;;;;;11.00;6.17;;;;;;;21.89;73.40;99034.41;1870728;76;22137;-60
2021/07/13 01:22:53;;;;;;;11.60;6.08;;;;;;;21.86;73.47;99027.95;1870657;76;22552;-62
2021/07/13 01:25:49;;;;;;;8.20;6.37;;;;;;;21.82;73.64;99028.48;1869730;76;22157;-60
2021/07/13 01:28:28;;;;;;;9.43;6.40;;;;;;;21.79;73.91;99031.23;1870556;76;22141;-61
2021/07/13 01:31:06;;;;;;;11.20;6.20;;;;;;;21.74;74.01;99034.92;1870681;76;22112;-62
2021/07/13 01:33:45;;;;;;;8.90;6.10;;;;;;;21.70;74.25;99026.27;1870914;76;22137;-63
2021/07/13 01:36:33;;;;;;;12.03;7.00;;;;;;;21.65;74.52;99026.88;1870665;76;22611;-63
2021/07/13 01:39:10;;;;;;;10.72;6.28;;;;;;;21.60;74.75;99026.17;1870626;76;22160;-62
2021/07/13 01:41:52;;;;;;;9.25;6.75;;;;;;;21.56;75.00;99016.70;1870630;76;22568;-63
2021/07/13 01:44:30;;;;;;;13.40;6.80;;;;;;;21.52;75.23;99011.98;1870570;76;22583;-62
2021/07/13 01:47:25;;;;;;;11.73;7.00;;;;;;;21.52;75.36;99018.55;1854891;76;27926;-62
2021/07/13 01:50:20;;;;;;;9.50;6.22;;;;;;;21.54;75.35;99018.05;1889985;76;22152;-62
2021/07/13 01:52:56;;;;;;;10.50;7.05;;;;;;;21.53;75.49;99015.48;1870655;76;20101;-60
2021/07/13 01:55:39;;;;;;;9.85;7.03;;;;;;;21.51;75.62;99022.09;1854813;76;27934;-62
2021/07/13 01:58:18;;;;;;;12.10;7.22;;;;;;;21.56;75.58;99027.20;1889936;76;22176;-62
2021/07/13 02:00:58;;;;;;;12.68;6.65;;;;;;;21.56;75.76;99029.83;1889965;76;22155;-63
2021/07/13 02:03:34;;;;;;;10.95;7.28;;;;;;;21.56;75.75;99019.33;1889971;76;22523;-60
2021/07/13 02:06:12;;;;;;;11.33;6.92;;;;;;;21.54;75.82;99026.39;1870506;76;22164;-61
2021/07/13 02:08:53;;;;;;;8.60;7.12;;;;;;;21.50;75.89;99023.45;1870637;76;22105;-62
2021/07/13 02:11:29;;;;;;;11.53;7.35;;;;;;;21.48;76.08;99022.66;1870650;76;22152;-62
2021/07/13 02:14:24;;;;;;;9.35;6.58;;;;;;;21.45;76.10;99020.53;1854615;76;28046;-60
2021/07/13 02:17:18;;;;;;;9.73;6.42;;;;;;;21.52;76.03;99024.26;1870662;76;22179;-60
2021/07/13 02:19:52;;;;;;;11.78;7.20;;;;;;;21.52;75.95;99027.73;1870683;76;22157;-63
2021/07/13 02:22:28;;;;;;;10.18;7.22;;;;;;;21.53;75.85;99038.66;1870433;76;22144;-63
2021/07/13 02:25:08;;;;;;;8.78;6.83;;;;;;;21.56;75.78;99033.77;1890004;76;22120;-61
2021/07/13 02:28:02;;;;;;;12.53;7.00;;;;;;;21.58;75.68;99034.58;1890071;76;22124;-60
2021/07/13 02:30:41;;;;;;;11.22;6.67;;;;;;;21.60;75.52;99030.11;1870487;76;22588;-64
2021/07/13 02:33:23;;;;;;;8.73;6.62;;;;;;;21.61;75.49;99034.48;1870511;76;22607;-62
2021/07/13 02:36:04;;;;;;;9.93;6.78;;;;;;;21.62;75.33;99032.23;1889962;76;22152;-61
2021/07/13 02:38:41;;;;;;;10.23;6.85;;;;;;;21.65;75.51;99032.13;1870599;76;22201;-63
2021/07/13 02:41:18;;;;;;;14.75;7.17;;;;;;;21.65;75.60;99037.38;1889954;76;22608;-63
2021/07/13 02:43:55;;;;;;;10.53;7.47;;;;;;;21.61;75.72;99043.67;1870636;76;22563;-63
2021/07/13 02:46:32;;;;;;;9.98;7.15;;;;;;;21.60;75.84;99041.93;1855097;76;27916;-60
2021/07/13 02:49:05;;;;;;;9.53;6.85;;;;;;;21.62;75.79;99033.55;1870928;76;22550;-62
2021/07/13 02:51:41;;;;;;;9.50;6.60;;;;;;;21.62;75.65;99042.28;1870692;76;22184;-62
2021/07/13 02:54:19;;;;;;;11.85;7.17;;;;;;;21.66;75.54;99037.80;1889975;76;22583;-62
2021/07/13 02:56:55;;;;;;;11.73;6.97;;;;;;;21.70;75.45;99037.23;1870954;76;22543;-62
2021/07/13 02:59:32;;;;;;;14.23;7.47;;;;;;;21.72;75.37;99034.96;1870633;76;22152;-61
2021/07/13 03:02:08;;;;;;;13.20;6.50;;;;;;;21.73;75.33;99035.39;1890006;76;22132;-62
2021/07/13 03:05:04;;;;;;;12.25;7.50;;;;;;;21.76;75.16;99035.28;1870582;76;22587;-63
2021/07/13 03:07:40;;;;;;;10.82;7.42;;;;;;;21.79;75.13;99044.36;1870692;76;22169;-60
2021/07/13 03:10:21;;;;;;;12.33;7.35;;;;;;;21.81;75.26;99049.12;1889960;76;22164;-62
2021/07/13 03:12:56;;;;;;;16.05;6.85;;;;;;;21.95;75.11;99050.41;1890029;76;22176;-64
2021/07/13 03:15:32;;;;;;;14.20;6.50;;;;;;;22.08;74.65;99057.84;1870699;76;22573;-62
2021/07/13 03:18:06;;;;;;;15.45;7.75;;;;;;;22.17;74.12;99052.71;1870731;76;22198;-62
2021/07/13 03:20:45;;;;;;;15.40;8.53;;;;;;;22.19;74.04;99052.67;1889957;76;22183;-63
2021/07/13 03:23:21;;;;;;;16.27;9.00;;;;;;;22.22;73.80;99060.02;1870896;76;22145;-64
2021/07/13 03:25:55;;;;;;;16.27;9.90;;;;;;;22.25;73.60;99057.27;1873870;76;28338;-61
2021/07/13 03:28:31;;;;;;;16.65;9.88;;;;;;;22.29;73.36;99053.63;1873924;76;28340;-63
2021/07/13 03:31:09;;;;;;;20.12;9.10;;;;;;;22.39;73.07;99051.54;1890124;76;20092;-59
2021/07/13 03:33:42;;;;;;;11.22;7.62;;;;;;;22.45;72.78;99049.14;1870883;76;22145;-63
2021/07/13 03:36:19;;;;;;;14.18;7.97;;;;;;;22.60;72.52;99060.41;1870599;76;22190;-62
2021/07/13 03:39:16;;;;;;;15.08;10.15;;;;;;;22.78;72.01;99059.34;1873921;76;27884;-63
2021/07/13 03:41:53;;;;;;;13.93;8.60;;;;;;;23.00;71.32;99055.45;1889964;76;22177;-64
2021/07/13 03:44:34;;;;;;;14.28;9.20;;;;;;;23.16;70.51;99051.33;1869739;76;22156;-64
2021/07/13 03:47:14;;;;;;;14.40;10.50;;;;;;;23.32;69.91;99055.06;1890012;76;22555;-62
2021/07/13 03:49:51;;;;;;;12.65;8.93;;;;;;;23.45;69.08;99056.75;1889943;76;22542;-62
2021/07/13 03:52:26;;;;;;;15.32;10.18;;;;;;;23.48;68.63;99052.66;1890092;76;22108;-61
2021/07/13 03:55:00;;;;;;;13.40;8.08;;;;;;;23.50;68.33;99051.30;1870697;76;22173;-63
2021/07/13 03:57:35;;;;;;;10.40;7.50;;;;;;;23.47;67.79;99047.48;1870550;76;22136;-62
2021/07/13 04:00:17;;;;;;;10.23;7.42;;;;;;;23.48;67.92;99044.76;1873797;76;28070;-63
2021/07/13 04:02:51;;;;;;;13.32;7.35;;;;;;;23.65;67.35;99051.14;1889838;76;22148;-63
2021/07/13 04:05:28;;;;;;;14.20;7.12;;;;;;;23.72;67.26;99036.80;1890070;76;22144;-62
2021/07/13 04:08:06;;;;;;;11.97;6.90;;;;;;;23.82;67.05;99039.01;1870442;76;22148;-62
2021/07/13 04:10:40;;;;;;;12.68;8.18;;;;;;;23.97;66.86;99040.14;1850837;77;22173;-64
2021/07/13 04:13:16;;;;;;;13.98;7.87;;;;;;;24.09;66.12;99038.73;1848354;76;28562;-62
2021/07/13 04:15:58;;;;;;;15.28;7.65;;;;;;;24.22;65.91;99041.70;1864204;76;22188;-64
2021/07/13 04:18:40;;;;;;;10.72;6.72;;;;;;;24.28;65.58;99039.28;1839416;76;22302;-64
2021/07/13 04:21:15;;;;;;;11.38;7.67;;;;;;;24.39;65.03;99050.20;1855443;76;22201;-61
2021/07/13 04:23:50;;;;;;;14.90;7.40;;;;;;;24.47;64.55;99051.62;1836645;76;28055;-63
2021/07/13 04:26:45;;;;;;;10.15;6.92;;;;;;;24.66;64.01;99056.08;1859361;76;22223;-64
2021/07/13 04:29:20;;;;;;;11.75;7.12;;;;;;;24.79;63.58;99056.37;1860568;76;22148;-64
2021/07/13 04:31:54;;;;;;;11.25;6.42;;;;;;;24.94;63.22;99056.98;1861377;76;22597;-62
2021/07/13 04:34:31;;;;;;;10.95;6.42;;;;;;;25.07;62.90;99062.55;1854175;76;27912;-63
2021/07/13 04:37:05;;;;;;;10.83;7.00;;;;;;;25.25;61.32;99061.70;1854925;76;27961;-62
2021/07/13 04:39:40;;;;;;;10.00;6.47;;;;;;;25.31;61.89;99057.44;1862870;76;22551;-64
2021/07/13 04:42:15;;;;;;;8.95;5.72;;;;;;;25.37;61.15;99063.39;1862498;76;22210;-62
2021/07/13 04:44:49;;;;;;;7.67;5.08;;;;;;;25.35;61.12;99070.05;1853088;76;22199;-64
2021/07/13 04:47:31;;;;;;;12.95;6.03;;;;;;;25.41;60.93;99068.90;1875278;76;22199;-63
2021/07/13 04:50:11;;;;;;;9.43;5.15;;;;;;;25.53;60.87;99065.20;1867405;76;22140;-62
2021/07/13 04:52:44;;;;;;;8.03;5.28;;;;;;;25.58;60.81;99069.41;1837384;76;28024;-63
2021/07/13 04:55:19;;;;;;;7.55;5.00;;;;;;;25.67;60.52;99063.22;1870704;76;22172;-61
2021/07/13 04:57:54;;;;;;;10.95;5.62;;;;;;;25.74;60.03;99056.67;1888943;76;22189;-60
2021/07/13 05:00:29;;;;;;;7.17;4.97;;;;;;;25.83;59.75;99057.17;1854808;76;27894;-62
2021/07/13 05:03:24;;;;;;;6.58;4.78;;;;;;;25.87;59.17;99065.34;1880532;75;22220;-63
2021/07/13 05:05:59;;;;;;;8.55;4.55;;;;;;;25.82;59.44;99066.02;1870653;76;22149;-62
2021/07/13 05:08:40;;;;;;;7.20;4.33;;;;;;;25.86;58.74;99062.33;1866535;76;22118;-63
2021/07/13 05:11:21;;;;;;;9.65;4.35;;;;;;;25.94;57.99;99058.82;1889895;76;22613;-64
2021/07/13 05:13:56;;;;;;;11.30;5.17;;;;;;;25.96;58.71;99063.10;1889951;76;22561;-65
2021/07/13 05:16:31;;;;;;;7.50;4.80;;;;;;;26.03;58.43;99059.69;1870652;76;22210;-63
2021/07/13 05:19:08;;;;;;;6.75;3.95;;;;;;;26.11;58.32;99054.01;1870641;76;22587;-62
2021/07/13 05:21:44;;;;;;;10.58;4.78;;;;;;;26.12;55.94;99064.49;1889880;76;22615;-63
2021/07/13 05:24:17;;;;;;;7.72;4.75;;;;;;;26.03;56.68;99057.05;1867954;76;22289;-63
2021/07/13 05:27:12;;;;;;;7.42;4.15;;;;;;;26.02;56.88;99055.79;1889842;76;22108;-61
2021/07/13 05:29:47;;;;;;;10.23;4.78;;;;;;;26.09;56.97;99062.02;1870696;76;22249;-62
2021/07/13 05:32:22;;;;;;;12.20;4.50;;;;;;;26.24;56.89;99062.17;1870578;76;22257;-61
2021/07/13 05:34:57;;;;;;;7.22;4.70;;;;;;;26.39;56.47;99060.05;1870603;76;22173;-64
2021/07/13 05:37:33;;;;;;;12.25;4.95;;;;;;;26.52;56.09;99056.28;1870490;76;22172;-62
2021/07/13 05:40:10;;;;;;;8.68;4.95;;;;;;;26.59;55.64;99063.00;1868367;76;22242;-51
2021/07/13 05:43:04;;;;;;;6.92;4.87;;;;;;;26.58;54.43;99064.77;1855476;76;22635;-46
2021/07/13 05:45:39;;;;;;;10.58;5.40;;;;;;;26.47;55.69;99064.46;1851493;76;38728;-44
2021/07/13 05:48:14;;;;;;;9.20;4.97;;;;;;;26.38;56.17;99068.91;1870560;76;22543;-56
2021/07/13 05:50:49;;;;;;;11.65;4.87;;;;;;;26.47;56.61;99067.58;1870611;76;22177;-49
2021/07/13 05:53:24;;;;;;;11.08;5.30;;;;;;;26.79;55.62;99068.08;1870569;76;22232;-53
2021/07/13 05:55:59;;;;;;;11.05;4.72;;;;;;;27.66;54.01;99063.70;1870535;76;22157;-45
2021/07/13 05:58:35;;;;;;;15.38;5.12;;;;;;;28.66;51.75;99067.09;1889864;76;22144;-48
2021/07/13 06:01:29;;;;;;;11.40;4.90;;;;;;;29.96;48.54;99068.52;1870645;76;22113;-42
2021/07/13 06:04:04;;;;;;;8.18;4.92;;;;;;;30.74;46.04;99071.64;1870720;76;22105;-40
2021/07/13 06:06:40;;;;;;;8.28;4.30;;;;;;;30.79;44.71;99076.16;1854562;76;27914;-40
2021/07/13 06:09:14;;;;;;;5.95;3.67;;;;;;;31.32;44.01;99079.94;1870614;76;22204;-49
2021/07/13 06:11:50;;;;;;;7.08;4.00;;;;;;;31.85;42.67;99083.16;1819386;77;28012;-44
2021/07/13 06:14:25;;;;;;;10.08;3.87;;;;;;;32.57;42.03;99087.06;1870547;76;22078;-40
2021/07/13 06:17:19;;;;;;;5.78;3.80;;;;;;;33.64;39.74;99094.19;1870538;76;22260;-49
2021/07/13 06:19:53;;;;;;;5.75;3.40;;;;;;;34.48;38.21;99101.83;1870560;76;22343;-49
2021/07/13 06:22:28;;;;;;;4.92;3.25;;;;;;;35.21;36.66;99106.66;1870715;76;22063;-49
2021/07/13 06:25:05;;;;;;;5.95;3.10;;;;;;;35.64;35.22;99101.45;1870593;76;22050;-48
2021/07/13 06:27:40;;;;;;;5.92;3.42;;;;;;;36.04;34.30;99101.83;1889774;76;22093;-39
2021/07/13 06:30:18;;;;;;;6.78;3.33;;;;;;;36.46;33.61;99102.87;1854739;76;28044;-45
2021/07/13 06:32:53;;;;;;;6.65;3.25;;;;;;;36.80;32.97;99106.90;1855039;76;27923;-51
2021/07/13 06:35:29;;;;;;;8.43;3.77;;;;;;;36.66;32.69;99106.36;1870566;76;22055;-54
2021/07/13 06:38:05;;;;;;;6.65;3.72;;;;;;;36.92;32.38;99100.34;1854896;76;28308;-52
2021/07/13 06:40:40;;;;;;;9.15;3.83;;;;;;;37.23;31.42;99110.84;1856271;76;22116;-43
2021/07/13 06:43:14;;;;;;;7.20;3.72;;;;;;;36.76;31.50;99115.74;1889872;76;22077;-42
2021/07/13 06:45:49;;;;;;;4.58;3.20;;;;;;;36.02;32.76;99107.83;1870410;76;22082;-49
2021/07/13 06:48:24;;;;;;;5.55;3.33;;;;;;;36.11;33.20;99112.05;1869463;76;22576;-43
2021/07/13 06:50:58;;;;;;;7.70;3.67;;;;;;;36.78;32.36;99112.92;1865365;76;22155;-48
2021/07/13 06:53:33;;;;;;;7.08;3.58;;;;;;;37.26;31.65;99115.92;1852407;76;22120;-47
2021/07/13 06:56:09;;;;;;;5.37;3.58;;;;;;;37.50;31.43;99116.69;1864183;76;22477;-45
2021/07/13 06:58:44;;;;;;;8.18;3.50;;;;;;;37.93;30.95;99117.81;1855855;76;22078;-42
2021/07/13 07:01:18;;;;;;;6.08;3.83;;;;;;;37.88;30.66;99123.66;1861993;76;22079;-46
2021/07/13 07:03:54;;;;;;;8.53;4.30;;;;;;;37.91;31.05;99121.16;1838152;76;28475;-42
2021/07/13 07:06:29;;;;;;;8.68;3.37;;;;;;;38.72;30.05;99118.30;1864281;76;22823;-48
2021/07/13 07:09:04;;;;;;;6.37;3.53;;;;;;;39.21;29.55;99115.00;1840255;76;28362;-46
2021/07/13 07:11:39;;;;;;;7.00;3.50;;;;;;;39.91;28.75;99118.78;1859378;76;22116;-41
2021/07/13 07:14:33;;;;;;;6.85;3.27;;;;;;;40.68;27.86;99123.33;1855139;76;22105;-43
2021/07/13 07:17:08;;;;;;;6.20;3.37;;;;;;;41.04;26.69;99128.28;1852913;76;22128;-42
2021/07/13 07:19:48;;;;;;;6.30;4.05;;;;;;;40.34;27.29;99126.25;1862257;76;22100;-44
2021/07/13 07:22:23;;;;;;;8.90;3.83;;;;;;;40.09;27.78;99124.86;1847435;76;22096;-44
2021/07/13 07:24:58;;;;;;;7.03;3.55;;;;;;;40.32;27.55;99130.45;1865868;76;22096;-39
2021/07/13 07:27:55;;;;;;;7.62;3.80;;;;;;;39.89;27.66;99129.75;1874212;76;22487;-50
2021/07/13 07:30:48;;;;;;;6.83;4.15;;;;;;;38.69;29.04;99131.27;1866837;76;22145;-41
2021/07/13 07:33:24;;;;;;;10.45;4.20;;;;;;;37.39;30.83;99124.48;1853175;76;22108;-41
2021/07/13 07:35:58;;;;;;;7.42;3.90;;;;;;;36.78;31.86;99111.07;1865835;76;22087;-45
2021/07/13 07:38:33;;;;;;;6.65;3.92;;;;;;;37.03;31.81;99120.82;1849093;76;22252;-46
2021/07/13 07:41:08;;;;;;;10.08;4.22;;;;;;;37.25;31.53;99112.39;1870621;76;22498;-47
2021/07/13 07:43:42;;;;;;;10.75;4.30;;;;;;;36.91;31.93;99108.89;1889774;76;22183;-49
2021/07/13 07:46:17;;;;;;;13.60;5.10;;;;;;;37.18;31.90;99108.59;1870632;76;22042;-41
2021/07/13 07:48:58;;;;;;;9.83;4.50;;;;;;;38.11;30.98;99110.59;1869598;76;22527;-40
2021/07/13 07:51:33;;;;;;;10.88;5.08;;;;;;;39.03;29.16;99106.53;1870615;76;22066;-32
2021/07/13 07:54:10;;;;;;;9.15;4.92;;;;;;;39.15;29.54;99111.62;1850450;76;22112;-36
2021/07/13 07:57:23;;;;;;;12.90;4.78;;;;;;;39.77;28.83;99117.56;1868512;75;22630;-36
2021/07/13 07:59:58;;;;;;;21.82;8.70;;;;;;;40.48;27.93;99115.22;1870612;76;22054;-37
2021/07/13 08:02:33;;;;;;;17.75;7.53;;;;;;;41.03;27.48;99112.23;1870344;76;22164;-44
2021/07/13 08:05:10;;;;;;;10.65;5.42;;;;;;;41.62;26.79;99112.66;1834539;76;38830;-47
2021/07/13 08:07:47;;;;;;;12.63;5.58;;;;;;;42.07;25.75;99117.26;1870106;76;22098;-52
2021/07/13 08:10:41;;;;;;;10.53;4.37;;;;;;;41.96;25.37;99119.06;1852942;76;22117;-46
2021/07/13 08:13:16;;;;;;;11.55;4.25;;;;;;;41.81;25.64;99116.25;1889898;76;22167;-49
2021/07/13 08:15:51;;;;;;;7.37;4.10;;;;;;;41.96;25.32;99116.34;1869913;76;22098;-39
2021/07/13 08:18:26;;;;;;;8.00;4.28;;;;;;;41.95;25.09;99114.64;1825784;76;30921;-47
2021/07/13 08:21:01;;;;;;;9.08;4.03;;;;;;;41.87;25.27;99117.39;1870644;76;22116;-49
2021/07/13 08:23:36;;;;;;;11.33;4.12;;;;;;;41.84;24.97;99117.76;1870576;76;22047;-43
2021/07/13 08:26:11;;;;;;;5.37;3.90;;;;;;;41.20;25.74;99114.73;1889924;76;22484;-42
2021/07/13 08:28:45;;;;;;;11.63;4.20;;;;;;;41.08;26.15;99110.69;1870634;76;22090;-36
2021/07/13 08:31:21;;;;;;;6.72;4.37;;;;;;;41.30;26.10;99110.97;1870674;76;22079;-42
2021/07/13 08:33:55;;;;;;;8.53;4.30;;;;;;;41.58;25.70;99108.12;1854815;76;27951;-41
2021/07/13 08:36:31;;;;;;;6.75;4.00;;;;;;;41.95;25.35;99110.58;1870642;76;22538;-35
2021/07/13 08:39:06;;;;;;;7.17;3.72;;;;;;;42.20;25.07;99115.28;1890009;76;22133;-42
2021/07/13 08:41:41;;;;;;;6.30;4.03;;;;;;;41.98;24.83;99117.50;1870598;76;22137;-40
2021/07/13 08:44:16;;;;;;;7.85;3.83;;;;;;;40.89;25.87;99102.97;1890093;76;22493;-44
2021/07/13 08:46:51;;;;;;;8.63;4.33;;;;;;;40.41;26.86;99115.59;1889881;76;22054;-43
2021/07/13 08:49:26;;;;;;;8.48;3.90;;;;;;;39.64;27.56;99104.55;1870588;76;22070;-38
2021/07/13 08:52:00;;;;;;;6.47;3.98;;;;;;;39.18;28.47;99096.44;1870565;76;22078;-42
2021/07/13 08:54:56;;;;;;;7.67;4.75;;;;;;;38.98;28.58;99099.42;1889832;76;22512;-44
2021/07/13 08:57:30;;;;;;;8.30;4.55;;;;;;;38.29;29.53;99096.23;1870665;76;22055;-42
2021/07/13 09:00:09;;;;;;;8.23;4.65;;;;;;;37.94;30.10;99088.55;1889906;76;22461;-44
2021/07/13 09:03:08;;;;;;;7.17;4.75;;;;;;;37.71;29.89;99091.70;1889909;76;22077;-44
2021/07/13 09:06:03;;;;;;;10.10;4.62;;;;;;;36.19;31.57;99086.66;1870574;76;22228;-39
2021/07/13 09:08:45;;;;;;;6.62;4.42;;;;;;;35.22;33.50;99086.88;1889786;76;22191;-46
2021/07/13 09:11:39;;;;;;;8.70;5.37;;;;;;;34.41;34.93;99073.85;1870392;76;22079;-39
2021/07/13 09:15:05;;;;;;;9.53;5.40;;;;;;;33.42;36.53;99062.45;1870594;76;22055;-53
2021/07/13 09:17:47;;;;;;;8.45;5.17;;;;;;;32.94;37.94;99073.45;1870520;76;22087;-49
2021/07/13 09:20:27;;;;;;;8.13;5.10;;;;;;;32.68;38.30;99061.31;1870691;76;22059;-51
2021/07/13 09:23:06;;;;;;;9.98;5.20;;;;;;;32.41;38.89;99062.46;1870600;76;22090;-49
2021/07/13 09:25:43;;;;;;;9.73;5.60;;;;;;;32.35;39.07;99058.45;1870568;76;22304;-46
2021/07/13 09:28:41;;;;;;;10.80;5.72;;;;;;;32.02;38.96;99067.24;1889879;76;22223;-46
2021/07/13 09:31:16;;;;;;;10.60;5.75;;;;;;;31.72;40.07;99059.70;1870614;76;22278;-46
2021/07/13 09:33:50;;;;;;;9.08;5.90;;;;;;;31.64;40.15;99057.61;1870569;76;22063;-45
2021/07/13 09:36:54;;;;;;;7.58;5.62;;;;;;;31.56;40.38;99066.18;1870582;76;22252;-40
2021/07/13 09:39:29;;;;;;;7.80;6.20;;;;;;;31.42;40.77;99063.67;1854756;76;27961;-46
2021/07/13 09:42:29;;;;;;;8.60;5.85;;;;;;;31.62;40.63;99056.02;1870583;76;22062;-45
2021/07/13 09:45:25;;;;;;;13.43;6.15;;;;;;;31.78;40.56;99062.77;1866968;76;22078;-42
2021/07/13 09:48:10;;;;;;;8.70;6.33;;;;;;;31.94;40.56;99057.64;1852877;76;27956;-44
2021/07/13 09:50:49;;;;;;;9.00;6.00;;;;;;;31.91;40.70;99058.69;1870642;76;22616;-45
2021/07/13 09:53:43;;;;;;;11.85;5.70;;;;;;;31.85;40.67;99056.47;1870687;76;22232;-48
2021/07/13 09:56:42;;;;;;;11.68;6.50;;;;;;;31.75;40.96;99058.13;1854625;76;27847;-47
2021/07/13 09:59:16;;;;;;;8.25;6.25;;;;;;;31.56;41.25;99058.66;1870687;76;22208;-47
2021/07/13 10:01:52;;;;;;;12.20;6.67;;;;;;;31.50;41.66;99053.80;1854700;76;27904;-48
2021/07/13 10:04:30;;;;;;;16.50;5.67;;;;;;;31.52;41.47;99058.52;1870707;76;22067;-47
2021/07/13 10:07:10;;;;;;;9.48;5.80;;;;;;;31.42;41.77;99056.16;1889992;76;22240;-44
2021/07/13 10:09:48;;;;;;;7.28;5.42;;;;;;;31.22;41.85;99054.45;1870521;76;22248;-47
2021/07/13 10:12:49;;;;;;;10.80;6.12;;;;;;;31.08;42.29;99057.26;1889848;76;22093;-42
2021/07/13 10:15:25;;;;;;;9.88;6.72;;;;;;;31.12;42.06;99056.93;1870642;76;22079;-42
2021/07/13 10:18:05;;;;;;;8.33;5.72;;;;;;;31.20;42.04;99052.38;1870628;76;22043;-40
2021/07/13 10:20:42;;;;;;;7.80;5.45;;;;;;;31.25;41.53;99051.55;1870661;76;22220;-40
2021/07/13 10:23:18;;;;;;;8.40;5.78;;;;;;;31.29;41.57;99051.69;1870563;76;22133;-40
2021/07/13 10:25:55;;;;;;;10.05;6.00;;;;;;;31.39;41.40;99053.23;1889897;76;22254;-38
2021/07/13 10:28:34;;;;;;;8.33;6.00;;;;;;;31.51;41.43;99054.16;1870689;76;22725;-45
2021/07/13 10:31:11;;;;;;;10.58;6.08;;;;;;;31.52;41.82;99050.51;1870651;76;22176;-43
2021/07/13 10:33:46;;;;;;;9.73;6.87;;;;;;;31.42;42.30;99049.48;1870426;76;22090;-43
2021/07/13 10:36:35;;;;;;;13.70;6.72;;;;;;;31.32;42.45;99059.94;1870684;76;22168;-48
2021/07/13 10:39:31;;;;;;;11.05;6.95;;;;;;;30.99;42.82;99051.25;1889903;76;22171;-42
2021/07/13 10:42:10;;;;;;;11.57;7.60;;;;;;;30.77;43.68;99046.10;1855018;76;38364;-38
2021/07/13 10:44:48;;;;;;;10.68;6.22;;;;;;;30.85;43.55;99050.91;1870570;76;22517;-39
2021/07/13 10:51:05;;;;;;;10.05;6.85;;;;;;;30.82;43.86;99047.98;1889902;76;22168;-46
2021/07/13 10:53:46;;;;;;;8.93;6.08;;;;;;;30.63;43.39;99046.22;1889854;76;22682;-45
2021/07/13 10:56:32;;;;;;;9.03;5.97;;;;;;;30.52;43.76;99044.31;1870649;76;22248;-42
2021/07/13 10:59:23;;;;;;;11.53;6.42;;;;;;;30.54;43.28;99052.21;1870638;76;22228;-46
2021/07/13 11:02:11;;;;;;;8.78;5.83;;;;;;;30.50;43.36;99041.74;1889909;76;22309;-45
2021/07/13 11:04:46;;;;;;;9.28;5.72;;;;;;;30.61;43.18;99045.50;1870545;76;22228;-43
2021/07/13 11:07:40;;;;;;;9.35;5.47;;;;;;;30.63;42.59;99030.23;1870565;76;22079;-42
2021/07/13 11:10:18;;;;;;;9.33;5.80;;;;;;;30.63;43.04;99032.44;1870658;76;22270;-47
2021/07/13 11:13:24;;;;;;;8.43;5.65;;;;;;;30.73;42.52;99043.27;1870598;76;22176;-46
2021/07/13 11:16:23;;;;;;;10.90;6.60;;;;;;;30.86;42.90;99033.95;1889928;76;22143;-48
2021/07/13 11:19:01;;;;;;;10.05;6.78;;;;;;;30.90;42.44;99030.97;1870242;76;22200;-49
2021/07/13 11:21:37;;;;;;;10.58;6.55;;;;;;;30.85;42.98;99033.11;1864161;76;22165;-44
2021/07/13 11:24:16;;;;;;;15.88;7.37;;;;;;;30.83;44.00;99040.84;1835043;77;22255;-42
2021/07/13 11:26:55;;;;;;;14.87;7.42;;;;;;;30.75;44.55;99040.02;1889937;76;22140;-47
2021/07/13 11:29:52;;;;;;;11.35;6.60;;;;;;;30.53;45.24;99036.68;1870569;76;22113;-49
2021/07/13 11:32:59;;;;;;;11.20;7.37;;;;;;;30.41;45.66;99023.77;1870489;76;22151;-40
2021/07/13 11:35:35;;;;;;;8.03;6.55;;;;;;;30.47;45.45;99021.99;1889923;76;22119;-46
2021/07/13 11:38:09;;;;;;;10.38;7.47;;;;;;;30.62;45.23;99020.06;1873987;76;27936;-46
2021/07/13 11:40:45;;;;;;;12.18;6.92;;;;;;;30.85;44.96;99015.79;1870548;76;22062;-42
2021/07/13 11:43:26;;;;;;;11.93;7.00;;;;;;;31.02;44.75;99019.06;1856769;76;22546;-42
2021/07/13 11:46:23;;;;;;;9.63;6.85;;;;;;;31.15;44.53;99019.38;1867356;76;22064;-41
2021/07/13 11:49:18;;;;;;;12.80;7.03;;;;;;;31.24;44.36;99023.17;1858756;76;22314;-38
2021/07/13 11:51:59;;;;;;;9.35;7.00;;;;;;;31.00;44.53;99024.49;1817762;77;22603;-37
2021/07/13 11:54:38;;;;;;;11.73;7.37;;;;;;;30.90;44.92;99016.80;1864396;76;22269;-44
2021/07/13 11:57:33;;;;;;;9.55;6.20;;;;;;;30.91;44.78;99015.82;1865137;76;22661;-48
2021/07/13 12:00:09;;;;;;;10.03;6.10;;;;;;;30.88;44.84;99018.22;1859575;76;22562;-44
2021/07/13 12:02:48;;;;;;;9.48;7.22;;;;;;;30.99;44.62;99027.26;1870619;76;22058;-49
2021/07/13 12:05:42;;;;;;;10.70;6.90;;;;;;;31.00;45.62;99015.66;1870502;76;22586;-46
2021/07/13 12:08:22;;;;;;;9.00;6.28;;;;;;;30.90;44.68;99020.30;1870606;76;22051;-47
2021/07/13 12:10:57;;;;;;;11.63;6.47;;;;;;;30.91;44.84;99010.48;1865586;76;22263;-51
2021/07/13 12:13:52;;;;;;;11.85;7.58;;;;;;;31.10;44.56;99015.35;1889806;76;22285;-57
2021/07/13 12:16:31;;;;;;;14.25;6.53;;;;;;;31.04;44.74;99008.66;1870612;76;22302;-48
2021/07/13 12:19:18;;;;;;;13.90;7.67;;;;;;;31.03;44.79;98994.95;1870641;76;22391;-50
2021/07/13 12:21:58;;;;;;;9.23;6.35;;;;;;;31.10;44.71;98995.36;1870509;76;22046;-48
2021/07/13 12:24:36;;;;;;;10.50;6.15;;;;;;;31.09;44.63;99010.97;1850799;77;22159;-50
2021/07/13 12:27:15;;;;;;;8.45;6.67;;;;;;;30.92;45.01;99001.06;1852127;76;22188;-55
2021/07/13 12:32:31;;;;;;;11.50;6.00;;;;;;;30.93;44.75;98990.77;1853019;76;22328;-45
2021/07/13 12:35:15;;;;;;;9.40;5.85;;;;;;;31.06;44.66;98985.38;1853225;76;22262;-46
2021/07/13 12:37:48;;;;;;;17.48;6.75;;;;;;;31.11;44.79;98987.72;1858168;76;22617;-46